Viernes, 31 de Octubre del 2014

portal contactenos mapa del sitio buscar Revisar Correo Corporativo

Reporte METAR Consolidado

|| Reporte TAF Consolidado ||

Informe METAR emitido cada hora.

METAR

ESTACIÓN

AEROPUERTO

HORA UTC

DESCRIPCIÓN

SLGM

Guayaramerín

10-49S|65-20W

23:00

SLGM 312300Z 02004KT 9999 FEW020 FEW023CB BKN200 28/24 Q1006 A2973 HR78 CB W=

SLRI

Riberalta

11-00S|66-04W

23:00

SLRI 312300Z 00000KT 7000 SCT015 FEW020CB BKN200 28/23 Q1006 A2973 HR73 FU CB N/W/NW=

SLCO

Cobija

11-02S|68-47W

22:00

SLCO 312200Z 09006KT 6000 VCTSSH FEW020 FEW023CB SCT080 BKN200 28/25 Q1006 A2971 978.9 HR85 CB/N/NE/SE/W/NW TS/SH/N/NE/NW=

SLJO

San Joaquin

13-03S|64-39W

22:00

SLJO 312200Z 00000KT 9999 FEW017 FEW020CB BKN200 28/23 Q1004 A2965 HR75 CB W/NW RWY NML=

SLRA

San Ramón

13-15S|64-36W

22:00

SLRA 312200Z 32004KT 9999 FEW017 FEW023CB BKN200 28/23 Q1005 A2968 HR77 CB SE RWY NML=

SLMG

San Magdalena

13-15S|64-03W

23:00

SLMG 312300Z 00000KT 9999 FEW017 BKN200 28/24 Q1006 A2973 HR78 RWY NML=

SLBU

Baures

13-39S|63-42W

22:00

SLBU 312200Z 35006KT 8000 VCSH SCT017 FEW023CB BKN200 31/25 Q1005 A2970 HR69 CB/SH N/NW RWY NML=

SLSA

Santa Ana de Yacuma

13-45S|65-26W

23:00

SLSA 312300Z 00000KT 9999 FEW017 BKN200 27/25 Q1004 A2965 HR89=

SLSR

Santa Rosa

14-04S|66-47W

22:00

SLSR 312200Z 35004KT 9999 FEW017 31/25 Q1001 A2958 HR72 RWY HUM OPR=

SLRY

Reyes

14-18S|67-21W

22:00

SLRY 312200Z 34004KT 9999 NSC 29/24 Q1006 A2971 HR73 CI RWY OPR 1 000M=

SLRQ

Rurrenabaque

14-25S|67-29W

22:00

SLRQ 312200Z 36006KT 9999 FEW020 BKN200 30/26 Q1004 A2967 HR78=

SLAP

Apolo

14-44S|68-24W

17:00

SLAPO 121700Z NIL=

SLTR

Trinidad

14-49S|64-54W

23:00

SLTR 312300Z 36005KT 9999 FEW020 FEW023CB BKN200 31/24 Q1005 A2969 987.0 HR65 CB NW NOSIG=

SLSB

San Borja

14-51S|66-44W

23:00

SLSB 312300Z 00000KT 9999 NSC 29/24 Q1004 A2965 CI HR73 RWY NML=

SLSM

San Ignacio de Moxos

14-57S|65-38W

22:00

SLSM 312200Z 00000KT 9999 FEW017 BKN200 31/24 Q1002 A2960 HR65 RWY HUM OPR=

SLAS

Ascención de Guarayos

15-55S|63-09W

23:00

SLAS 312300Z 00000KT 9999 FEW020 OVC200 38/23 Q1007 A2974 HR75 RWY NML=

SLCP

Concepción

16-08S|62-01W

22:00

SLCP 312200Z 00000KT 9999 FEW020 BKN200 30/23 Q1010 A2983 HR67 RWY NML=

SLLP

Internaciónal El Alto

16-08S|68-10W

03:00

SLLP 010300Z VRB02KT 9999 FEW015 SCT200 07/01 Q1037 A3063 627.6 FU HR65 NOSIG=

SLJV

San Javier

16-16S|62-28W

22:00

SLJV 312200Z 00000KT 9999 FEW020 OVC200 29/24 Q1006 A2971 HR72 RWY NML=

SLTI

San Matías

16-20S|58-24W

22:00

SLTI 312200Z 00000KT 9999 SCT017 FEW027CB BKN200 28/25 Q1013 A2991 HR85 CB N RWY NML=

SLSI

San Ignacio de Velasco

16-23S|60-57W

23:00

SLSI 312300Z 00000KT 9999 SCT017 29/25 Q1007 A2974 HR78 RWY NML =

SLCB

Cochabamba

17-25S|66-10W

03:00

SLCB 010300Z 00000KT 9999 FEW027 BKN200 15/07 Q1023 A3022 750.1 HR58 FU NOSIG=

SLCN

Charaña

17-35S|69-25W

-

Mensaje no Recibido

SLVR

Internaciónal Viru Viru

17-38S|63-08W

03:00

SLVR 010300Z 34007KT 9999 NSC 24/24 Q1009 A2980 HR98 CI NOSIG=

SLET

El Trompillo

17-48S|63-10W

23:00

SLET 312300Z 31010KT 9999 FEW015 BKN200 25/23 Q1006 A2971 HR88 NOSIG=

SLJE

San José de Chiquitos

17-49S|60-44W

22:00

SLJE 312200Z 00000KT 9999 SCT017 FEW027CB BKN200 32/24 Q1009 A2980 HR64 CB NE RWY NML=

SLOR

Oruro

17-57S|67-04W

02:00

SLOR 010200Z 28005KT 9999 NSC 11/02 Q1033 A3050 654.5 HR55=

SLRB

Roboré

18-19S|59-45W

23:00

SLRB 312300Z 00000KT 9999 FEW025CB SCT200 28/24 Q1008 A2977 HR79 CB N/NE RWY NML=

SLVG

Valle Grande

18-28S|64-05W

21:00

SLVG 312100Z 02010KT 9999 NSC 22/15 Q1019 A3009 HR61 CS RWY NML =

SLPS

Puerto Suárez

18-58S|57-49W

23:00

SLPS 312300Z 07004KT 9999 FEW027CB 29/25 Q1006 A2971 HR79 FU CB NW=

SLSU

Sucre

19-00S|65-17W

23:00

SLSU 312300Z 05010KT 9999 FEW020 FEW033CB BKN200 18/09 Q1025 A3029 HR55 CB/W=

SLPO

Potosí

19-32S|65-43W

21:00

SLPO 312100Z 05012KT 9999 SCT020 FEW023CB BKN200 12/02 Q1033 A3050 HR52 CB/NE/E=

SLAG

Monteagudo

19-49S|63-58W

21:00

SLAG 312100Z 00000KT 9999 NSC 31/21 Q1010 A2983 HR56 CI FU RWY CLSD=

SLCA

Camiri

20-00S|63-31W

23:00

SLCA 312300Z 36004KT 9999 SCT036 FEW040CB OVC080 31/20 Q1008 A2977 HR52 CB S/SW RWY NML=

SLUY

Uyuni

20-27S|62-52W

20:00

SLUY 312000Z 33018KT 9999 FEW012 19/M07 Q1028 A3038 654.6 CI HR21=

SLVM

Villamontes

21-15S|63-24W

21:00

SLVM 312100Z 06004KT 9999 SCT025 FEW027CB SCT070 BKN200 37/20 Q1000 A2953 HR38 CB/S/SW/NW/W=

SLTJ

Tarija

21-33S|64-42W

02:00

SLTJ 010200Z 00000KT 9999 FEW030 FEW033CB SCT070 BKN200 19/18 Q1017 A3005 HR92 CB LT DIST S=

SLYA

Yacuiba

21-57S|63-39W

-

SLYA 010000Z 18008KT 8000 VCTS SCT020 FEW025CB OVC070 22/19 Q1006 A2973 HR84 CB/TS NE/E/S/NW/N SH S/N=

SLBJ

Bermejo

22-46S|64-18W

21:00

SLBJ 312100Z 18006KT 9999 SCT0125 FEW017CB BKN070 35/25 Q1000 A2953 HR59 CB W=